createdAt,value
2018-10-21T00:02:18.901Z,11.44
2018-10-21T00:04:48.692Z,11.52
2018-10-21T00:07:18.717Z,11.54
2018-10-21T00:09:53.861Z,11.48
2018-10-21T00:12:24.306Z,11.33
2018-10-21T00:14:58.853Z,11.23
2018-10-21T00:17:29.042Z,11.15
2018-10-21T00:19:58.623Z,11.12
2018-10-21T00:22:27.800Z,10.94
2018-10-21T00:24:58.326Z,10.93
2018-10-21T00:27:27.420Z,11.08
2018-10-21T00:29:56.588Z,11.01
2018-10-21T00:32:30.670Z,10.90
2018-10-21T00:35:00.898Z,10.76
2018-10-21T00:37:30.678Z,10.80
2018-10-21T00:40:00.394Z,10.69
2018-10-21T00:42:30.483Z,10.50
2018-10-21T00:44:59.809Z,10.50
2018-10-21T00:47:32.100Z,10.62
2018-10-21T00:50:02.022Z,10.55
2018-10-21T00:52:32.995Z,10.43
2018-10-21T00:55:02.315Z,10.51
2018-10-21T00:57:31.714Z,10.54
2018-10-21T01:00:04.588Z,10.65
2018-10-21T01:02:34.291Z,10.65
2018-10-21T01:05:04.937Z,10.60
2018-10-21T01:07:34.089Z,10.55
2018-10-21T01:10:03.332Z,10.46
2018-10-21T01:12:34.925Z,10.41
2018-10-21T01:15:07.570Z,10.37
2018-10-21T01:17:37.947Z,10.35
2018-10-21T01:20:09.223Z,10.49
2018-10-21T01:22:38.471Z,10.42
2018-10-21T01:25:08.368Z,10.52
2018-10-21T01:27:39.209Z,10.52
2018-10-21T01:30:09.664Z,10.60
2018-10-21T01:32:39.149Z,10.59
2018-10-21T01:35:10.126Z,10.59
2018-10-21T01:37:39.484Z,10.54
2018-10-21T01:40:30.508Z,10.45
2018-10-21T01:43:00.651Z,10.54
2018-10-21T01:45:30.357Z,10.52
2018-10-21T01:48:01.850Z,10.47
2018-10-21T01:50:31.955Z,10.52
2018-10-21T01:53:03.081Z,10.43
2018-10-21T01:55:33.241Z,10.34
2018-10-21T01:58:19.205Z,9.75
2018-10-21T02:00:48.695Z,10.07
2018-10-21T02:03:19.176Z,10.25
2018-10-21T02:05:49.369Z,10.21
2018-10-21T02:08:19.197Z,10.25
2018-10-21T02:10:48.820Z,10.32
2018-10-21T02:13:18.489Z,10.25
2018-10-21T02:15:48.173Z,10.20
2018-10-21T02:18:17.825Z,10.26
2018-10-21T02:20:48.413Z,10.19
2018-10-21T02:23:18.272Z,10.26
2018-10-21T02:25:47.921Z,10.13
2018-10-21T02:28:20.941Z,9.94
2018-10-21T02:30:50.572Z,9.70
2018-10-21T02:33:20.382Z,9.61
2018-10-21T02:35:50.373Z,9.65
2018-10-21T02:38:19.689Z,9.69
2018-10-21T02:41:26.866Z,9.62
2018-10-21T02:43:56.097Z,9.64
2018-10-21T02:46:34.797Z,9.53
2018-10-21T02:49:04.886Z,9.54
2018-10-21T02:51:34.781Z,9.59
2018-10-21T02:54:05.419Z,9.63
2018-10-21T02:56:35.022Z,9.64
2018-10-21T02:59:04.806Z,9.68
2018-10-21T03:01:37.056Z,9.74
2018-10-21T03:04:06.504Z,9.87
2018-10-21T03:06:37.905Z,9.76
2018-10-21T03:09:37.990Z,9.62
2018-10-21T03:12:11.681Z,9.69
2018-10-21T03:14:41.808Z,9.79
2018-10-21T03:17:12.378Z,9.82
2018-10-21T03:19:43.427Z,9.99
2018-10-21T03:22:13.006Z,10.09
2018-10-21T03:24:42.684Z,10.00
2018-10-21T03:27:13.818Z,10.11
2018-10-21T03:29:43.809Z,10.15
2018-10-21T03:32:15.482Z,9.98
2018-10-21T03:37:19.614Z,9.71
2018-10-21T03:39:52.509Z,9.84
2018-10-21T03:42:21.947Z,9.85
2018-10-21T03:44:52.192Z,9.90
2018-10-21T03:49:53.166Z,9.95
2018-10-21T03:52:22.558Z,9.97
2018-10-21T03:54:52.180Z,9.98
2018-10-21T03:57:21.750Z,9.89
2018-10-21T03:59:51.979Z,9.68
2018-10-21T04:02:21.912Z,9.46
2018-10-21T04:04:51.295Z,9.41
2018-10-21T04:07:21.342Z,9.32
2018-10-21T04:09:51.853Z,9.37
2018-10-21T04:12:21.478Z,9.39
2018-10-21T04:14:50.811Z,9.42
2018-10-21T04:17:23.266Z,9.51
2018-10-21T04:19:52.911Z,9.39
2018-10-21T04:22:22.667Z,9.30
2018-10-21T04:24:53.280Z,8.98
2018-10-21T04:27:22.894Z,9.28
2018-10-21T04:29:52.457Z,9.38
2018-10-21T04:32:22.449Z,9.47
2018-10-21T04:34:52.131Z,9.58
2018-10-21T04:37:32.700Z,9.66
2018-10-21T04:42:55.121Z,9.66
2018-10-21T04:45:24.822Z,9.44
2018-10-21T04:47:54.132Z,9.33
2018-10-21T04:50:25.945Z,9.46
2018-10-21T04:52:55.093Z,9.51
2018-10-21T04:55:24.335Z,9.65
2018-10-21T04:57:54.948Z,9.59
2018-10-21T05:00:24.415Z,9.61
2018-10-21T05:02:54.013Z,9.16
2018-10-21T05:05:23.615Z,9.31
2018-10-21T05:07:53.191Z,9.30
2018-10-21T05:10:27.968Z,9.44
2018-10-21T05:12:57.800Z,9.52
2018-10-21T05:15:28.612Z,9.39
2018-10-21T05:17:58.416Z,9.30
2018-10-21T05:20:27.722Z,9.44
2018-10-21T05:22:57.251Z,9.51
2018-10-21T05:25:27.755Z,9.57
2018-10-21T05:27:57.414Z,9.42
2018-10-21T05:30:27.363Z,9.22
2018-10-21T05:32:57.031Z,9.22
2018-10-21T05:35:28.327Z,9.18
2018-10-21T05:37:58.846Z,9.19
2018-10-21T05:40:29.160Z,9.27
2018-10-21T05:43:02.681Z,9.24
2018-10-21T05:45:32.535Z,9.21
2018-10-21T05:48:02.214Z,8.71
2018-10-21T05:50:31.643Z,9.11
2018-10-21T05:53:01.422Z,9.10
2018-10-21T05:55:30.960Z,9.17
2018-10-21T05:58:00.284Z,9.20
2018-10-21T06:00:30.260Z,9.24
2018-10-21T06:02:59.932Z,9.36
2018-10-21T06:05:39.619Z,9.43
2018-10-21T06:08:09.994Z,9.52
2018-10-21T06:10:39.184Z,9.51
2018-10-21T06:13:12.054Z,9.56
2018-10-21T06:15:47.741Z,9.62
2018-10-21T06:18:18.852Z,9.73
2018-10-21T06:20:50.303Z,9.73
2018-10-21T06:23:20.798Z,9.63
2018-10-21T06:25:50.905Z,9.56
2018-10-21T06:28:21.657Z,9.60
2018-10-21T06:30:52.042Z,9.68
2018-10-21T06:36:05.211Z,9.74
2018-10-21T06:38:35.215Z,9.85
2018-10-21T06:41:05.118Z,9.74
2018-10-21T06:43:34.463Z,9.75
2018-10-21T06:46:04.062Z,9.81
2018-10-21T06:48:49.236Z,9.72
2018-10-21T06:51:20.705Z,9.77
2018-10-21T06:53:50.066Z,9.72
2018-10-21T06:56:19.710Z,9.72
2018-10-21T06:58:54.086Z,9.63
2018-10-21T07:01:24.369Z,9.89
2018-10-21T07:03:53.869Z,9.93
2018-10-21T07:06:32.368Z,9.82
2018-10-21T07:09:02.985Z,9.96
2018-10-21T07:11:32.208Z,10.03
2018-10-21T07:14:02.416Z,9.96
2018-10-21T07:16:33.241Z,10.08
2018-10-21T07:19:23.544Z,10.05
2018-10-21T07:21:59.133Z,9.99
2018-10-21T07:24:39.339Z,10.07
2018-10-21T07:27:11.275Z,10.21
2018-10-21T07:29:44.131Z,10.25
2018-10-21T07:32:13.630Z,10.22
2018-10-21T07:34:42.879Z,10.24
2018-10-21T07:37:12.229Z,10.63
2018-10-21T07:39:42.173Z,10.72
2018-10-21T07:42:13.210Z,10.65
2018-10-21T07:44:42.781Z,10.87
2018-10-21T07:47:12.217Z,11.19
2018-10-21T07:49:42.558Z,11.32
2018-10-21T07:52:13.910Z,11.55
2018-10-21T07:54:47.828Z,11.85
2018-10-21T07:57:18.359Z,12.04
2018-10-21T07:59:48.569Z,12.45
2018-10-21T08:02:21.566Z,12.80
2018-10-21T08:04:51.218Z,12.94
2018-10-21T08:07:31.444Z,13.04
2018-10-21T08:10:01.755Z,13.22
2018-10-21T08:12:31.220Z,13.28
2018-10-21T08:15:00.691Z,13.68
2018-10-21T08:17:31.506Z,13.93
2018-10-21T08:20:00.937Z,14.29
2018-10-21T08:22:31.918Z,14.64
2018-10-21T08:25:03.983Z,15.02
2018-10-21T08:27:36.060Z,15.26
2018-10-21T08:30:08.369Z,15.69
2018-10-21T08:32:38.637Z,16.14
2018-10-21T08:35:09.348Z,16.33
2018-10-21T08:37:39.632Z,16.05
2018-10-21T08:40:08.876Z,16.33
2018-10-21T08:42:41.337Z,16.87
2018-10-21T08:47:55.707Z,16.87
2018-10-21T08:50:27.069Z,17.57
2018-10-21T08:52:57.286Z,18.18
2018-10-21T08:55:28.324Z,18.63
2018-10-21T08:57:59.204Z,18.67
2018-10-21T09:00:30.387Z,18.59
2018-10-21T09:02:59.656Z,19.28
2018-10-21T09:05:28.936Z,19.51
2018-10-21T09:08:03.321Z,20.02
2018-10-21T09:13:04.512Z,20.81
2018-10-21T09:15:37.960Z,21.45
2018-10-21T09:18:07.391Z,21.94
2018-10-21T09:20:38.209Z,22.03
2018-10-21T09:23:08.111Z,21.84
2018-10-21T09:25:37.324Z,21.90
2018-10-21T09:28:08.863Z,22.22
2018-10-21T09:30:41.204Z,22.45
2018-10-21T09:33:11.725Z,22.46
2018-10-21T09:35:42.001Z,23.04
2018-10-21T09:38:11.228Z,22.81
2018-10-21T09:40:41.406Z,22.95
2018-10-21T09:43:19.644Z,22.90
2018-10-21T09:45:50.644Z,21.85
2018-10-21T09:48:20.768Z,22.27
2018-10-21T09:50:50.301Z,22.35
2018-10-21T09:53:19.932Z,23.61
2018-10-21T09:55:49.385Z,23.56
2018-10-21T09:58:19.159Z,23.56
2018-10-21T10:00:54.828Z,24.40
2018-10-21T10:03:23.980Z,24.59
2018-10-21T10:05:54.630Z,24.59
2018-10-21T10:08:23.832Z,24.69
2018-10-21T10:10:53.555Z,24.61
2018-10-21T10:13:23.558Z,25.31
2018-10-21T10:15:54.175Z,25.62
2018-10-21T10:18:24.196Z,25.99
2018-10-21T10:20:55.520Z,25.53
2018-10-21T10:23:30.348Z,25.09
2018-10-21T10:26:00.745Z,25.13
2018-10-21T10:28:30.356Z,25.32
2018-10-21T10:31:00.668Z,25.39
2018-10-21T10:33:30.358Z,24.61
2018-10-21T10:36:03.481Z,25.25
2018-10-21T10:38:33.839Z,24.85
2018-10-21T10:41:03.450Z,24.37
2018-10-21T10:43:34.054Z,23.92
2018-10-21T10:46:03.543Z,24.77
2018-10-21T10:48:34.609Z,25.20
2018-10-21T10:51:03.891Z,25.38
2018-10-21T10:53:34.325Z,25.28
2018-10-21T10:56:04.631Z,25.56
2018-10-21T10:58:36.161Z,25.99
2018-10-21T11:01:07.637Z,25.88
2018-10-21T11:03:38.541Z,25.73
2018-10-21T11:06:09.184Z,25.31
2018-10-21T11:08:40.187Z,24.92
2018-10-21T11:11:10.296Z,25.09
2018-10-21T11:13:42.339Z,25.35
2018-10-21T11:16:11.875Z,25.05
2018-10-21T11:18:41.609Z,25.41
2018-10-21T11:21:13.581Z,25.86
2018-10-21T11:23:51.950Z,25.03
2018-10-21T11:26:24.249Z,24.58
2018-10-21T11:32:27.740Z,25.38
2018-10-21T11:35:00.614Z,25.47
2018-10-21T11:40:25.381Z,24.89
2018-10-21T11:42:54.693Z,25.12
2018-10-21T11:45:25.775Z,25.25
2018-10-21T11:48:02.214Z,25.14
2018-10-21T11:50:32.073Z,24.35
2018-10-21T11:53:01.382Z,24.70
2018-10-21T11:55:34.635Z,23.90
2018-10-21T11:58:04.237Z,24.37
2018-10-21T12:03:01.253Z,24.30
2018-10-21T12:05:32.237Z,23.89
2018-10-21T12:08:01.548Z,23.91
2018-10-21T12:10:32.724Z,23.37
2018-10-21T12:13:02.400Z,23.29
2018-10-21T12:15:35.347Z,23.16
2018-10-21T12:18:07.244Z,23.38
2018-10-21T12:20:36.709Z,23.28
2018-10-21T12:23:10.581Z,23.04
2018-10-21T12:25:41.170Z,22.33
2018-10-21T12:28:25.204Z,22.63
2018-10-21T12:31:05.658Z,23.11
2018-10-21T12:33:43.462Z,22.19
2018-10-21T12:36:14.584Z,22.61
2018-10-21T12:38:45.634Z,23.09
2018-10-21T12:41:16.526Z,23.11
2018-10-21T12:43:48.269Z,22.62
2018-10-21T12:46:18.513Z,23.24
2018-10-21T12:48:48.809Z,22.83
2018-10-21T12:51:18.995Z,23.17
2018-10-21T12:53:48.250Z,23.02
2018-10-21T12:56:17.413Z,22.83
2018-10-21T12:58:47.281Z,22.86
2018-10-21T13:01:18.442Z,22.88
2018-10-21T13:03:47.980Z,23.11
2018-10-21T13:06:17.586Z,22.77
2018-10-21T13:08:48.476Z,22.36
2018-10-21T13:11:19.119Z,22.19
2018-10-21T13:13:48.389Z,21.34
2018-10-21T13:16:20.633Z,20.43
2018-10-21T13:18:56.303Z,20.40
2018-10-21T13:21:25.814Z,20.68
2018-10-21T13:24:00.292Z,20.63
2018-10-21T13:26:30.615Z,20.39
2018-10-21T13:29:02.128Z,20.45
2018-10-21T13:31:34.326Z,20.64
2018-10-21T13:34:04.522Z,20.48
2018-10-21T13:36:34.498Z,20.43
2018-10-21T13:39:07.421Z,20.64
2018-10-21T13:41:40.363Z,20.68
2018-10-21T13:44:09.642Z,20.38
2018-10-21T13:46:40.454Z,19.84
2018-10-21T13:49:09.754Z,19.72
2018-10-21T13:51:40.955Z,19.85
2018-10-21T13:54:12.538Z,20.04
2018-10-21T13:56:41.691Z,19.99
2018-10-21T13:59:14.228Z,19.83
2018-10-21T14:01:43.579Z,19.69
2018-10-21T14:04:16.546Z,19.64
2018-10-21T14:06:47.246Z,19.77
2018-10-21T14:09:18.663Z,19.48
2018-10-21T14:11:48.810Z,19.46
2018-10-21T14:14:21.088Z,19.68
2018-10-21T14:16:53.412Z,19.38
2018-10-21T14:19:28.085Z,19.47
2018-10-21T14:22:12.521Z,19.43
2018-10-21T14:24:44.461Z,19.36
2018-10-21T14:27:14.891Z,19.38
2018-10-21T14:29:44.240Z,19.48
2018-10-21T14:32:19.225Z,19.60
2018-10-21T14:34:49.769Z,19.40
2018-10-21T14:37:19.077Z,19.22
2018-10-21T14:39:48.569Z,19.26
2018-10-21T14:42:19.700Z,19.29
2018-10-21T14:44:51.593Z,19.47
2018-10-21T14:47:23.614Z,19.51
2018-10-21T14:49:53.154Z,19.29
2018-10-21T14:52:22.990Z,19.13
2018-10-21T14:54:53.616Z,19.14
2018-10-21T14:57:23.999Z,19.05
2018-10-21T14:59:56.704Z,19.32
2018-10-21T15:02:26.175Z,19.49
2018-10-21T15:04:55.595Z,19.45
2018-10-21T15:07:25.256Z,19.04
2018-10-21T15:09:55.600Z,18.97
2018-10-21T15:12:27.593Z,19.01
2018-10-21T15:15:03.669Z,19.16
2018-10-21T15:17:32.960Z,19.21
2018-10-21T15:20:05.347Z,19.27
2018-10-21T15:22:36.997Z,19.11
2018-10-21T15:25:08.433Z,19.20
2018-10-21T15:27:41.301Z,19.39
2018-10-21T15:30:18.134Z,19.39
2018-10-21T15:32:47.819Z,19.34
2018-10-21T15:35:17.160Z,19.31
2018-10-21T15:37:50.758Z,19.29
2018-10-21T15:40:27.211Z,19.31
2018-10-21T15:42:59.186Z,19.23
2018-10-21T15:48:15.831Z,19.21
2018-10-21T15:50:52.579Z,19.27
2018-10-21T15:53:26.108Z,19.36
2018-10-21T15:55:55.800Z,19.44
2018-10-21T15:58:28.893Z,19.39
2018-10-21T16:01:32.840Z,19.45
2018-10-21T16:04:04.281Z,19.29
2018-10-21T16:06:33.575Z,19.29
2018-10-21T16:09:07.935Z,19.18
2018-10-21T16:11:38.022Z,19.12
2018-10-21T16:14:13.180Z,19.18
2018-10-21T16:16:44.314Z,19.21
2018-10-21T16:19:15.438Z,19.19
2018-10-21T16:21:45.503Z,19.16
2018-10-21T16:24:18.294Z,19.15
2018-10-21T16:26:48.056Z,19.04
2018-10-21T16:29:17.397Z,19.00
2018-10-21T16:31:48.245Z,18.97
2018-10-21T16:34:18.777Z,18.98
2018-10-21T16:36:50.061Z,18.91
2018-10-21T16:39:19.923Z,18.89
2018-10-21T16:41:51.296Z,18.87
2018-10-21T16:44:25.030Z,18.80
2018-10-21T16:46:57.916Z,18.80
2018-10-21T16:49:31.421Z,18.77
2018-10-21T16:52:11.458Z,18.67
2018-10-21T16:54:43.165Z,18.59
2018-10-21T16:57:16.378Z,18.57
2018-10-21T16:59:47.406Z,18.49
2018-10-21T17:02:17.833Z,18.48
2018-10-21T17:04:50.169Z,18.31
2018-10-21T17:07:20.060Z,18.31
2018-10-21T17:09:52.689Z,18.32
2018-10-21T17:12:22.412Z,18.29
2018-10-21T17:15:09.251Z,18.26
2018-10-21T17:17:46.286Z,18.10
2018-10-21T17:20:20.745Z,17.97
2018-10-21T17:22:56.278Z,17.78
2018-10-21T17:25:28.873Z,17.72
2018-10-21T17:28:00.289Z,17.60
2018-10-21T17:30:30.942Z,17.48
2018-10-21T17:33:06.525Z,17.42
2018-10-21T17:35:35.810Z,17.40
2018-10-21T17:38:09.166Z,17.36
2018-10-21T17:40:39.917Z,17.30
2018-10-21T17:43:18.386Z,17.23
2018-10-21T17:45:48.766Z,17.16
2018-10-21T17:48:18.220Z,17.06
2018-10-21T17:50:52.711Z,16.96
2018-10-21T17:53:23.100Z,16.86
2018-10-21T17:55:52.278Z,16.76
2018-10-21T17:58:21.534Z,16.69
2018-10-21T18:00:52.629Z,16.54
2018-10-21T18:03:31.728Z,16.46
2018-10-21T18:06:04.388Z,16.30
2018-10-21T18:08:35.131Z,16.28
2018-10-21T18:11:05.646Z,16.25
2018-10-21T18:13:36.384Z,16.18
2018-10-21T18:16:08.404Z,16.12
2018-10-21T18:18:44.826Z,16.06
2018-10-21T18:21:19.827Z,15.86
2018-10-21T18:23:52.671Z,15.74
2018-10-21T18:26:23.355Z,15.63
2018-10-21T18:28:53.458Z,15.55
2018-10-21T18:31:23.322Z,15.52
2018-10-21T18:33:53.755Z,15.59
2018-10-21T18:36:23.992Z,15.65
2018-10-21T18:39:08.074Z,15.50
2018-10-21T18:41:43.242Z,15.49
2018-10-21T18:44:19.122Z,15.43
2018-10-21T18:46:53.666Z,15.34
2018-10-21T18:49:28.481Z,15.33
2018-10-21T18:52:06.269Z,15.26
2018-10-21T18:54:41.623Z,15.09
2018-10-21T18:57:16.393Z,15.02
2018-10-21T18:59:57.700Z,14.99
2018-10-21T19:02:32.132Z,15.00
2018-10-21T19:05:07.356Z,14.85
2018-10-21T19:07:38.163Z,14.86
2018-10-21T19:10:15.262Z,14.80
2018-10-21T19:12:59.570Z,14.83
2018-10-21T19:15:24.614Z,14.67
2018-10-21T19:17:56.390Z,14.71
2018-10-21T19:20:26.382Z,14.65
2018-10-21T19:22:56.826Z,14.53
2018-10-21T19:25:27.638Z,14.58
2018-10-21T19:28:05.038Z,14.64
2018-10-21T19:30:47.273Z,14.66
2018-10-21T19:33:24.674Z,14.57
2018-10-21T19:36:04.326Z,14.59
2018-10-21T19:38:40.274Z,14.60
2018-10-21T19:41:13.162Z,14.49
2018-10-21T19:43:44.582Z,14.26
2018-10-21T19:46:20.019Z,14.28
2018-10-21T19:51:42.665Z,14.46
2018-10-21T19:54:21.158Z,14.48
2018-10-21T19:56:52.799Z,14.44
2018-10-21T19:59:27.259Z,14.41
2018-10-21T20:01:57.327Z,14.47
2018-10-21T20:04:38.878Z,14.53
2018-10-21T20:07:10.536Z,14.51
2018-10-21T20:09:40.783Z,14.51
2018-10-21T20:12:13.374Z,14.53
2018-10-21T20:14:44.378Z,14.53
2018-10-21T20:17:18.343Z,14.45
2018-10-21T20:22:26.560Z,14.27
2018-10-21T20:24:56.681Z,14.19
2018-10-21T20:27:26.225Z,14.12
2018-10-21T20:29:59.355Z,14.07
2018-10-21T20:32:33.935Z,13.97
2018-10-21T20:35:09.687Z,13.93
2018-10-21T20:37:41.613Z,13.90
2018-10-21T20:40:13.312Z,13.86
2018-10-21T20:42:49.221Z,13.79
2018-10-21T20:45:21.289Z,13.70
2018-10-21T20:47:54.789Z,13.48
2018-10-21T20:50:24.960Z,13.29
2018-10-21T20:52:55.433Z,13.30
2018-10-21T20:55:25.779Z,13.29
2018-10-21T20:57:58.445Z,13.37
2018-10-21T21:00:29.085Z,13.19
2018-10-21T21:02:59.771Z,13.04
2018-10-21T21:05:29.535Z,13.07
2018-10-21T21:08:00.345Z,13.13
2018-10-21T21:10:31.245Z,13.14
2018-10-21T21:13:24.649Z,13.14
2018-10-21T21:15:56.870Z,13.06
2018-10-21T21:18:29.082Z,13.08
2018-10-21T21:21:00.105Z,13.03
2018-10-21T21:23:33.809Z,13.10
2018-10-21T21:26:06.027Z,13.08
2018-10-21T21:28:38.478Z,13.01
2018-10-21T21:31:15.652Z,12.97
2018-10-21T21:33:45.649Z,12.76
2018-10-21T21:36:18.198Z,12.90
2018-10-21T21:38:48.885Z,12.97
2018-10-21T21:41:20.404Z,12.91
2018-10-21T21:43:53.382Z,12.87
2018-10-21T21:46:23.932Z,12.93
2018-10-21T21:48:53.403Z,12.81
2018-10-21T21:51:27.042Z,12.72
2018-10-21T21:53:57.138Z,12.62
2018-10-21T21:56:27.666Z,12.53
2018-10-21T21:59:03.215Z,12.44
2018-10-21T22:01:33.959Z,12.48
2018-10-21T22:04:09.626Z,12.50
2018-10-21T22:06:44.367Z,12.43
2018-10-21T22:09:16.360Z,12.48
2018-10-21T22:11:53.875Z,12.46
2018-10-21T22:14:28.785Z,12.53
2018-10-21T22:17:00.639Z,12.51
2018-10-21T22:19:33.701Z,12.49
2018-10-21T22:22:06.273Z,12.47
2018-10-21T22:24:58.167Z,12.45
2018-10-21T22:27:29.166Z,12.50
2018-10-21T22:29:59.492Z,12.57
2018-10-21T22:32:31.770Z,12.56
2018-10-21T22:35:08.749Z,12.64
2018-10-21T22:37:39.360Z,12.69
2018-10-21T22:40:09.158Z,12.73
2018-10-21T22:42:40.229Z,12.65
2018-10-21T22:45:14.038Z,12.68
2018-10-21T22:47:43.965Z,12.64
2018-10-21T22:50:14.496Z,12.55
2018-10-21T22:52:46.892Z,12.56
2018-10-21T22:55:18.880Z,12.63
2018-10-21T22:57:49.709Z,12.57
2018-10-21T23:00:22.170Z,12.58
2018-10-21T23:02:58.881Z,12.65
2018-10-21T23:05:29.245Z,12.71
2018-10-21T23:08:01.159Z,12.77
2018-10-21T23:10:32.735Z,12.84
2018-10-21T23:13:02.353Z,12.94
2018-10-21T23:15:33.157Z,13.12
2018-10-21T23:18:05.668Z,13.12
2018-10-21T23:20:37.358Z,13.11
2018-10-21T23:23:07.736Z,13.26
2018-10-21T23:25:46.415Z,13.25
2018-10-21T23:28:16.341Z,13.15
2018-10-21T23:30:47.663Z,13.20
2018-10-21T23:33:18.141Z,13.17
2018-10-21T23:35:49.419Z,13.23
2018-10-21T23:38:23.060Z,13.37
2018-10-21T23:40:52.787Z,13.55
2018-10-21T23:43:24.923Z,13.60
2018-10-21T23:45:56.482Z,13.45
2018-10-21T23:48:32.206Z,13.45
2018-10-21T23:51:05.386Z,13.52
2018-10-21T23:56:39.340Z,13.80
2018-10-21T23:59:09.471Z,13.90
